createdAt,value
2023-04-26T00:00:11.347Z,96.0010
2023-04-26T00:01:12.042Z,95.9629
2023-04-26T00:02:12.797Z,95.9826
2023-04-26T00:03:13.628Z,96.0223
2023-04-26T00:04:14.817Z,95.9790
2023-04-26T00:05:15.742Z,95.9181
2023-04-26T00:06:16.455Z,95.9693
2023-04-26T00:07:17.138Z,95.9551
2023-04-26T00:08:17.776Z,95.9235
2023-04-26T00:09:18.505Z,95.8795
2023-04-26T00:10:19.171Z,95.8359
2023-04-26T00:11:19.835Z,95.8036
2023-04-26T00:12:20.542Z,95.8492
2023-04-26T00:13:21.260Z,95.9398
2023-04-26T00:14:21.900Z,95.9499
2023-04-26T00:15:22.584Z,95.9636
2023-04-26T00:16:23.255Z,96.0118
2023-04-26T00:17:23.896Z,96.0356
2023-04-26T00:18:24.516Z,96.1065
2023-04-26T00:19:25.159Z,96.0729
2023-04-26T00:20:25.787Z,96.0272
2023-04-26T00:21:26.439Z,96.0924
2023-04-26T00:22:27.052Z,96.1120
2023-04-26T00:23:27.730Z,96.1744
2023-04-26T00:24:28.468Z,96.3074
2023-04-26T00:25:29.130Z,96.3340
2023-04-26T00:26:29.773Z,96.2758
2023-04-26T00:27:30.430Z,96.2083
2023-04-26T00:28:31.045Z,96.2482
2023-04-26T00:29:31.748Z,96.2927
2023-04-26T00:30:32.445Z,96.2233
2023-04-26T00:31:33.107Z,96.1687
2023-04-26T00:32:33.751Z,96.1369
2023-04-26T00:33:34.475Z,96.1354
2023-04-26T00:34:35.167Z,96.1293
2023-04-26T00:35:35.834Z,96.1501
2023-04-26T00:36:36.608Z,96.1598
2023-04-26T00:37:37.336Z,96.2272
2023-04-26T00:38:37.960Z,96.2691
2023-04-26T00:39:38.700Z,96.2633
2023-04-26T00:40:39.374Z,96.3342
2023-04-26T00:41:40.084Z,96.3598
2023-04-26T00:42:40.741Z,96.3448
2023-04-26T00:43:41.426Z,96.2039
2023-04-26T00:44:42.110Z,96.0500
2023-04-26T00:45:42.839Z,96.0034
2023-04-26T00:46:43.471Z,95.9698
2023-04-26T00:47:44.162Z,95.9153
2023-04-26T00:48:44.790Z,95.8183
2023-04-26T00:49:45.483Z,95.7723
2023-04-26T00:50:46.159Z,95.7171
2023-04-26T00:51:46.829Z,95.8170
2023-04-26T00:52:47.558Z,95.8212
2023-04-26T00:53:48.210Z,95.7097
2023-04-26T00:54:48.939Z,95.6265
2023-04-26T00:55:49.661Z,95.4846
2023-04-26T00:56:50.348Z,95.4050
2023-04-26T00:57:51.000Z,95.2658
2023-04-26T00:58:51.870Z,95.2182
2023-04-26T00:59:52.828Z,95.1268
2023-04-26T01:00:53.811Z,94.9631
2023-04-26T01:01:54.530Z,94.9792
2023-04-26T01:02:55.314Z,95.0374
2023-04-26T01:03:56.131Z,95.0343
2023-04-26T01:04:57.037Z,95.0331
2023-04-26T01:05:57.688Z,95.1089
2023-04-26T01:06:58.390Z,95.0564
2023-04-26T01:07:59.102Z,95.0738
2023-04-26T01:08:59.773Z,95.0543
2023-04-26T01:10:00.464Z,95.0018
2023-04-26T01:11:01.157Z,95.0386
2023-04-26T01:12:01.867Z,95.0558
2023-04-26T01:13:02.582Z,95.1207
2023-04-26T01:14:03.257Z,95.1849
2023-04-26T01:15:03.978Z,95.2245
2023-04-26T01:16:04.694Z,95.2746
2023-04-26T01:17:05.340Z,95.3359
2023-04-26T01:18:06.093Z,95.3158
2023-04-26T01:19:06.735Z,95.3051
2023-04-26T01:20:07.422Z,95.4026
2023-04-26T01:21:08.126Z,95.4959
2023-04-26T01:22:08.873Z,95.5720
2023-04-26T01:23:09.535Z,95.7037
2023-04-26T01:24:10.209Z,95.7911
2023-04-26T01:25:10.898Z,95.9302
2023-04-26T01:26:11.595Z,96.0201
2023-04-26T01:27:12.230Z,96.0451
2023-04-26T01:28:12.878Z,96.1411
2023-04-26T01:29:13.598Z,96.1959
2023-04-26T01:30:14.361Z,96.2003
2023-04-26T01:31:15.030Z,96.2144
2023-04-26T01:32:15.734Z,96.2997
2023-04-26T01:33:16.472Z,96.3962
2023-04-26T01:34:17.192Z,96.4342
2023-04-26T01:35:17.916Z,96.4209
2023-04-26T01:36:18.565Z,96.4447
2023-04-26T01:37:19.231Z,96.4532
2023-04-26T01:38:19.963Z,96.5083
2023-04-26T01:39:20.603Z,96.5386
2023-04-26T01:40:21.358Z,96.5827
2023-04-26T01:41:21.984Z,96.6117
2023-04-26T01:42:22.689Z,96.5479
2023-04-26T01:43:23.388Z,96.5197
2023-04-26T01:44:24.053Z,96.5257
2023-04-26T01:45:24.739Z,96.5188
2023-04-26T01:46:25.442Z,96.5066
2023-04-26T01:47:26.121Z,96.4692
2023-04-26T01:48:26.784Z,96.4459
2023-04-26T01:49:27.455Z,96.4765
2023-04-26T01:50:28.122Z,96.4829
2023-04-26T01:51:28.962Z,96.4607
2023-04-26T01:52:29.784Z,96.4404
2023-04-26T01:53:30.531Z,96.4510
2023-04-26T01:54:31.189Z,96.4880
2023-04-26T01:55:31.855Z,96.5134
2023-04-26T01:56:32.666Z,96.5207
2023-04-26T01:57:33.407Z,96.4953
2023-04-26T01:58:34.100Z,96.4894
2023-04-26T01:59:34.737Z,96.5219
2023-04-26T02:00:35.454Z,96.4305
2023-04-26T02:01:36.118Z,96.2967
2023-04-26T02:02:36.945Z,96.2340
2023-04-26T02:03:37.844Z,96.2645
2023-04-26T02:04:38.565Z,96.2851
2023-04-26T02:05:39.194Z,96.2977
2023-04-26T02:06:39.896Z,96.3570
2023-04-26T02:07:40.609Z,96.3897
2023-04-26T02:08:41.247Z,96.4027
2023-04-26T02:09:41.943Z,96.3690
2023-04-26T02:10:42.659Z,96.4245
2023-04-26T02:11:43.358Z,96.4972
2023-04-26T02:12:44.066Z,96.6019
2023-04-26T02:13:44.711Z,96.7050
2023-04-26T02:14:45.361Z,96.8284
2023-04-26T02:15:46.127Z,96.9320
2023-04-26T02:16:46.881Z,96.9928
2023-04-26T02:17:47.547Z,97.0490
2023-04-26T02:18:48.289Z,97.0803
2023-04-26T02:19:48.939Z,97.1099
2023-04-26T02:20:49.650Z,97.1598
2023-04-26T02:21:50.337Z,97.2069
2023-04-26T02:22:50.998Z,97.2068
2023-04-26T02:23:51.629Z,97.2118
2023-04-26T02:24:52.319Z,97.2175
2023-04-26T02:25:52.987Z,97.2052
2023-04-26T02:26:53.682Z,97.1346
2023-04-26T02:27:54.357Z,97.0662
2023-04-26T02:28:55.159Z,97.0558
2023-04-26T02:29:55.846Z,97.0198
2023-04-26T02:30:56.556Z,96.9952
2023-04-26T02:31:57.377Z,96.9707
2023-04-26T02:32:58.092Z,96.9469
2023-04-26T02:33:58.778Z,96.9492
2023-04-26T02:34:59.527Z,97.0044
2023-04-26T02:36:00.186Z,97.0689
2023-04-26T02:37:00.912Z,97.0922
2023-04-26T02:38:01.632Z,97.1035
2023-04-26T02:39:02.325Z,97.1265
2023-04-26T02:40:03.054Z,97.1370
2023-04-26T02:41:03.940Z,97.1586
2023-04-26T02:42:04.708Z,97.1824
2023-04-26T02:43:05.385Z,97.1938
2023-04-26T02:44:06.091Z,97.2089
2023-04-26T02:45:06.854Z,97.2337
2023-04-26T02:46:07.563Z,97.2222
2023-04-26T02:47:08.321Z,97.2541
2023-04-26T02:48:09.083Z,97.2728
2023-04-26T02:49:09.750Z,97.3131
2023-04-26T02:50:10.420Z,97.3984
2023-04-26T02:51:11.104Z,97.4095
2023-04-26T02:52:11.814Z,97.3539
2023-04-26T02:53:12.514Z,97.2403
2023-04-26T02:54:13.252Z,97.1794
2023-04-26T02:55:13.928Z,97.1512
2023-04-26T02:56:14.620Z,97.0883
2023-04-26T02:57:15.287Z,97.0465
2023-04-26T02:58:16.000Z,97.0329
2023-04-26T02:59:16.673Z,97.0237
2023-04-26T03:00:17.399Z,97.0229
2023-04-26T03:01:18.159Z,97.0151
2023-04-26T03:02:18.970Z,97.0335
2023-04-26T03:03:19.910Z,97.0762
2023-04-26T03:04:21.030Z,97.1204
2023-04-26T03:05:21.705Z,97.2098
2023-04-26T03:06:22.428Z,97.3029
2023-04-26T03:07:23.138Z,97.3494
2023-04-26T03:08:23.988Z,97.3844
2023-04-26T03:09:24.606Z,97.4203
2023-04-26T03:10:25.285Z,97.4524
2023-04-26T03:11:26.011Z,97.4584
2023-04-26T03:12:26.123Z,97.4661
2023-04-26T03:13:26.852Z,97.5029
2023-04-26T03:14:27.528Z,97.5273
2023-04-26T03:15:28.216Z,97.5363
2023-04-26T03:16:28.969Z,97.5563
2023-04-26T03:17:29.625Z,97.5679
2023-04-26T03:18:30.363Z,97.5943
2023-04-26T03:19:31.020Z,97.6294
2023-04-26T03:20:31.685Z,97.6564
2023-04-26T03:21:32.357Z,97.6592
2023-04-26T03:22:33.036Z,97.6353
2023-04-26T03:23:33.760Z,97.5876
2023-04-26T03:24:34.448Z,97.5598
2023-04-26T03:25:35.154Z,97.5885
2023-04-26T03:26:35.838Z,97.6067
2023-04-26T03:27:36.506Z,97.5899
2023-04-26T03:28:37.203Z,97.5925
2023-04-26T03:29:37.920Z,97.5527
2023-04-26T03:30:38.621Z,97.5149
2023-04-26T03:31:39.461Z,97.4846
2023-04-26T03:32:40.185Z,97.4526
2023-04-26T03:33:40.787Z,97.4293
2023-04-26T03:34:41.490Z,97.4086
2023-04-26T03:35:42.192Z,97.3856
2023-04-26T03:36:42.927Z,97.3671
2023-04-26T03:37:43.575Z,97.3671
2023-04-26T03:38:44.247Z,97.3731
2023-04-26T03:39:44.952Z,97.3843
2023-04-26T03:40:45.684Z,97.3448
2023-04-26T03:41:46.367Z,97.2883
2023-04-26T03:42:47.122Z,97.2566
2023-04-26T03:43:47.767Z,97.2567
2023-04-26T03:44:48.466Z,97.2840
2023-04-26T03:45:49.148Z,97.3097
2023-04-26T03:46:49.902Z,97.3540
2023-04-26T03:47:50.693Z,97.3416
2023-04-26T03:48:51.703Z,97.3515
2023-04-26T03:49:52.808Z,97.3706
2023-04-26T03:50:53.505Z,97.3949
2023-04-26T03:51:54.181Z,97.4392
2023-04-26T03:52:54.882Z,97.4157
2023-04-26T03:53:55.593Z,97.4386
2023-04-26T03:54:56.264Z,97.4427
2023-04-26T03:55:56.936Z,97.4173
2023-04-26T03:56:57.619Z,97.4191
2023-04-26T03:57:58.534Z,97.4359
2023-04-26T03:58:59.173Z,97.4671
2023-04-26T03:59:59.934Z,97.4986
2023-04-26T04:01:00.571Z,97.5176
2023-04-26T04:02:01.267Z,97.5453
2023-04-26T04:03:02.016Z,97.6069
2023-04-26T04:04:02.935Z,97.6487
2023-04-26T04:05:03.853Z,97.6723
2023-04-26T04:06:04.620Z,97.6973
2023-04-26T04:07:05.308Z,97.7552
2023-04-26T04:08:06.017Z,97.7927
2023-04-26T04:09:06.728Z,97.8460
2023-04-26T04:10:07.401Z,97.8873
2023-04-26T04:11:08.137Z,97.9278
2023-04-26T04:12:08.834Z,97.9483
2023-04-26T04:13:09.547Z,97.9646
2023-04-26T04:14:10.302Z,97.9806
2023-04-26T04:15:10.998Z,98.0180
2023-04-26T04:16:11.756Z,98.0390
2023-04-26T04:17:12.428Z,98.0455
2023-04-26T04:18:13.177Z,98.0491
2023-04-26T04:19:13.888Z,98.0442
2023-04-26T04:20:14.622Z,98.0613
2023-04-26T04:21:15.347Z,98.0848
2023-04-26T04:22:16.071Z,98.0922
2023-04-26T04:23:16.787Z,98.0750
2023-04-26T04:24:17.429Z,98.0570
2023-04-26T04:25:18.108Z,98.0707
2023-04-26T04:26:18.754Z,98.0862
2023-04-26T04:27:19.523Z,98.1018
2023-04-26T04:28:20.174Z,98.1213
2023-04-26T04:29:20.875Z,98.1342
2023-04-26T04:30:21.584Z,98.1430
2023-04-26T04:31:22.363Z,98.1661
2023-04-26T04:32:23.181Z,98.1748
2023-04-26T04:33:23.878Z,98.1627
2023-04-26T04:34:24.575Z,98.1512
2023-04-26T04:35:25.251Z,98.1040
2023-04-26T04:36:25.924Z,98.0688
2023-04-26T04:37:26.615Z,98.0341
2023-04-26T04:38:27.315Z,97.9802
2023-04-26T04:39:27.953Z,97.9407
2023-04-26T04:40:28.663Z,97.9068
2023-04-26T04:41:29.404Z,97.8768
2023-04-26T04:42:30.087Z,97.8579
2023-04-26T04:43:31.087Z,97.8261
2023-04-26T04:44:31.885Z,97.7873
2023-04-26T04:45:32.574Z,97.7741
2023-04-26T04:46:33.312Z,97.7453
2023-04-26T04:47:34.247Z,97.7151
2023-04-26T04:48:34.995Z,97.6292
2023-04-26T04:49:35.710Z,97.5684
2023-04-26T04:50:36.394Z,97.4904
2023-04-26T04:51:37.122Z,97.4282
2023-04-26T04:52:37.923Z,97.3217
2023-04-26T04:53:38.638Z,97.1822
2023-04-26T04:54:39.250Z,97.1147
2023-04-26T04:55:39.980Z,97.0882
2023-04-26T04:56:40.622Z,97.0742
2023-04-26T04:57:43.117Z,96.9987
2023-04-26T04:58:43.948Z,97.0034
2023-04-26T04:59:44.737Z,97.0515
2023-04-26T05:00:45.412Z,97.0954
2023-04-26T05:01:46.134Z,97.0584
2023-04-26T05:02:46.951Z,97.0035
2023-04-26T05:03:47.776Z,96.9643
2023-04-26T05:04:48.541Z,96.9799
2023-04-26T05:05:49.294Z,96.9725
2023-04-26T05:06:50.039Z,96.9428
2023-04-26T05:07:50.900Z,96.8785
2023-04-26T05:08:51.628Z,96.8244
2023-04-26T05:09:52.325Z,96.8023
2023-04-26T05:10:52.958Z,96.8268
2023-04-26T05:11:53.620Z,96.8141
2023-04-26T05:12:54.340Z,96.8183
2023-04-26T05:13:55.592Z,96.8154
2023-04-26T05:14:56.699Z,96.7587
2023-04-26T05:15:57.503Z,96.5662
2023-04-26T05:16:58.205Z,96.4508
2023-04-26T05:17:58.966Z,96.3817
2023-04-26T05:18:59.670Z,96.3410
2023-04-26T05:20:00.494Z,96.2569
2023-04-26T05:21:01.201Z,96.1642
2023-04-26T05:22:01.907Z,96.1402
2023-04-26T05:23:02.626Z,96.0908
2023-04-26T05:24:03.363Z,96.1476
2023-04-26T05:25:04.064Z,96.1424
2023-04-26T05:26:04.747Z,96.1544
2023-04-26T05:27:05.443Z,96.1719
2023-04-26T05:28:06.144Z,96.2202
2023-04-26T05:29:06.811Z,96.2058
2023-04-26T05:30:07.454Z,96.1493
2023-04-26T05:31:10.632Z,96.1111
2023-04-26T05:32:09.354Z,96.1581
2023-04-26T05:33:10.073Z,96.1221
2023-04-26T05:34:10.743Z,96.0766
2023-04-26T05:35:11.397Z,96.0302
2023-04-26T05:36:12.083Z,95.9994
2023-04-26T05:37:12.742Z,96.0459
2023-04-26T05:38:13.485Z,96.0515
2023-04-26T05:39:14.157Z,96.0198
2023-04-26T05:40:14.837Z,95.9016
2023-04-26T05:41:15.570Z,95.8447
2023-04-26T05:42:17.855Z,95.7833
2023-04-26T05:43:19.136Z,95.6555
2023-04-26T05:44:19.928Z,95.4958
2023-04-26T05:45:20.626Z,95.4452
2023-04-26T05:46:21.607Z,95.3812
2023-04-26T05:47:22.613Z,95.3725
2023-04-26T05:48:23.331Z,95.4222
2023-04-26T05:49:24.017Z,95.3950
2023-04-26T05:50:24.749Z,95.3552
2023-04-26T05:51:25.456Z,95.2942
2023-04-26T05:52:26.179Z,95.2207
2023-04-26T05:53:26.923Z,95.0139
2023-04-26T05:54:27.628Z,94.7207
2023-04-26T05:55:28.367Z,94.6585
2023-04-26T05:56:29.121Z,94.5407
2023-04-26T05:57:29.943Z,94.4374
2023-04-26T05:58:30.662Z,94.3766
2023-04-26T05:59:31.376Z,94.4441
2023-04-26T06:00:32.108Z,94.3100
2023-04-26T06:01:32.873Z,94.2630
2023-04-26T06:02:33.876Z,94.1093
2023-04-26T06:03:35.151Z,93.9183
2023-04-26T06:04:36.191Z,93.9347
2023-04-26T06:05:36.944Z,93.8739
2023-04-26T06:06:37.785Z,93.9383
2023-04-26T06:07:38.499Z,93.8850
2023-04-26T06:08:39.229Z,93.7706
2023-04-26T06:09:39.935Z,93.7431
2023-04-26T06:10:40.673Z,93.7958
2023-04-26T06:11:41.321Z,93.8137
2023-04-26T06:12:42.056Z,93.7311
2023-04-26T06:13:43.126Z,93.6210
2023-04-26T06:14:43.946Z,93.7174
2023-04-26T06:15:44.605Z,93.8097
2023-04-26T06:16:45.428Z,93.9135
2023-04-26T06:17:46.132Z,93.6744
2023-04-26T06:18:46.902Z,93.5401
2023-04-26T06:19:47.698Z,93.6126
2023-04-26T06:20:48.440Z,93.6088
2023-04-26T06:21:49.169Z,93.4295
2023-04-26T06:22:49.939Z,93.1424
2023-04-26T06:23:50.942Z,92.9528
2023-04-26T06:24:52.004Z,92.7655
2023-04-26T06:25:52.669Z,92.7853
2023-04-26T06:26:53.414Z,93.0185
2023-04-26T06:27:54.163Z,93.0605
2023-04-26T06:28:54.890Z,93.2919
2023-04-26T06:29:55.605Z,93.4319
2023-04-26T06:30:56.450Z,93.3718
2023-04-26T06:31:57.173Z,93.1386
2023-04-26T06:32:58.032Z,92.8661
2023-04-26T06:33:58.779Z,92.5006
2023-04-26T06:34:59.509Z,92.6402
2023-04-26T06:36:00.223Z,93.0299
2023-04-26T06:37:00.994Z,92.9524
2023-04-26T06:38:01.689Z,92.7922
2023-04-26T06:39:02.419Z,92.5883
2023-04-26T06:40:03.124Z,92.3679
2023-04-26T06:41:03.863Z,92.3869
2023-04-26T06:42:04.633Z,92.1800
2023-04-26T06:43:05.370Z,91.8034
2023-04-26T06:44:06.126Z,92.1679
2023-04-26T06:45:06.881Z,92.2148
2023-04-26T06:46:07.602Z,92.0521
2023-04-26T06:47:08.311Z,92.1147
2023-04-26T06:48:09.098Z,92.0370
2023-04-26T06:49:09.870Z,91.9115
2023-04-26T06:50:10.614Z,91.6517
2023-04-26T06:51:11.390Z,91.3360
2023-04-26T06:52:12.215Z,91.5557
2023-04-26T06:53:12.922Z,91.8703
2023-04-26T06:54:13.708Z,92.1191
2023-04-26T06:55:14.442Z,91.9923
2023-04-26T06:56:15.133Z,91.6378
2023-04-26T06:57:15.874Z,91.5206
2023-04-26T06:58:16.824Z,91.2408
2023-04-26T06:59:17.572Z,91.0842
2023-04-26T07:00:18.317Z,90.8707
2023-04-26T07:01:19.069Z,90.8970
2023-04-26T07:02:20.068Z,90.9472
2023-04-26T07:03:21.033Z,90.4650
2023-04-26T07:04:22.047Z,90.2236
2023-04-26T07:05:22.911Z,90.5572
2023-04-26T07:06:23.677Z,90.7062
2023-04-26T07:07:24.355Z,90.7531
2023-04-26T07:08:25.100Z,90.4455
2023-04-26T07:09:25.804Z,90.1944
2023-04-26T07:10:26.535Z,89.7214
2023-04-26T07:11:27.270Z,89.2705
2023-04-26T07:12:27.960Z,89.6049
2023-04-26T07:13:28.658Z,89.7843
2023-04-26T07:14:29.343Z,89.8179
2023-04-26T07:15:30.041Z,89.3176
2023-04-26T07:16:30.803Z,89.2955
2023-04-26T07:17:31.600Z,89.5677
2023-04-26T07:18:32.323Z,89.7776
2023-04-26T07:19:33.093Z,89.4989
2023-04-26T07:20:33.871Z,89.1829
2023-04-26T07:21:34.570Z,89.9403
2023-04-26T07:22:35.296Z,89.5368
2023-04-26T07:23:36.090Z,89.5715
2023-04-26T07:24:36.774Z,89.6841
2023-04-26T07:25:37.488Z,89.2030
2023-04-26T07:26:38.208Z,89.0438
2023-04-26T07:27:38.967Z,88.8765
2023-04-26T07:28:39.688Z,88.6763
2023-04-26T07:29:40.435Z,88.7828
2023-04-26T07:30:41.145Z,88.5729
2023-04-26T07:31:41.817Z,88.1056
2023-04-26T07:32:42.659Z,88.1982
2023-04-26T07:33:43.505Z,88.2356
2023-04-26T07:34:44.251Z,87.9287
2023-04-26T07:35:44.988Z,87.4295
2023-04-26T07:36:45.705Z,87.6076
2023-04-26T07:37:46.412Z,87.9136
2023-04-26T07:38:47.179Z,87.9326
2023-04-26T07:39:47.837Z,88.6601
2023-04-26T07:40:48.567Z,88.8112
2023-04-26T07:41:49.238Z,88.1143
2023-04-26T07:42:49.975Z,87.7403
2023-04-26T07:43:50.882Z,87.6249
2023-04-26T07:44:51.973Z,87.2305
2023-04-26T07:45:52.727Z,86.8683
2023-04-26T07:46:53.416Z,86.3369
2023-04-26T07:47:54.781Z,87.1366
2023-04-26T07:48:55.884Z,87.7608
2023-04-26T07:49:56.603Z,87.9154
2023-04-26T07:50:57.327Z,87.4062
2023-04-26T07:51:58.023Z,87.3293
2023-04-26T07:52:58.769Z,86.7158
2023-04-26T07:53:59.440Z,86.7615
2023-04-26T07:55:00.161Z,86.8060
2023-04-26T07:56:00.882Z,86.6581
2023-04-26T07:57:01.636Z,86.3889
2023-04-26T07:58:02.314Z,86.3539
2023-04-26T07:59:03.053Z,87.1076
2023-04-26T08:00:03.744Z,87.1776
2023-04-26T08:01:04.443Z,86.6497
2023-04-26T08:02:05.199Z,86.2987
2023-04-26T08:03:06.108Z,85.8908
2023-04-26T08:04:07.435Z,85.6956
2023-04-26T08:05:08.445Z,85.4192
2023-04-26T08:06:09.233Z,85.2646
2023-04-26T08:07:09.968Z,85.8358
2023-04-26T08:08:10.616Z,85.6107
2023-04-26T08:09:12.499Z,85.3662
2023-04-26T08:10:13.331Z,85.3253
2023-04-26T08:11:14.082Z,85.6970
2023-04-26T08:12:14.830Z,85.9397
2023-04-26T08:13:15.509Z,85.5372
2023-04-26T08:14:16.399Z,85.5276
2023-04-26T08:15:17.103Z,85.0010
2023-04-26T08:16:17.830Z,84.7982
2023-04-26T08:17:18.568Z,84.2633
2023-04-26T08:18:19.292Z,84.0479
2023-04-26T08:19:20.069Z,83.8302
2023-04-26T08:20:20.769Z,84.2760
2023-04-26T08:21:21.510Z,84.5552
2023-04-26T08:22:22.254Z,84.2479
2023-04-26T08:23:22.983Z,83.4775
2023-04-26T08:24:23.884Z,83.3392
2023-04-26T08:25:24.768Z,83.6449
2023-04-26T08:26:25.494Z,83.7119
2023-04-26T08:27:26.236Z,84.2550
2023-04-26T08:28:26.925Z,84.2780
2023-04-26T08:29:27.684Z,84.7147
2023-04-26T08:30:28.411Z,84.9498
2023-04-26T08:31:29.256Z,84.8019
2023-04-26T08:32:30.066Z,84.4728
2023-04-26T08:33:30.762Z,84.4294
2023-04-26T08:34:31.505Z,84.0884
2023-04-26T08:35:32.271Z,84.1761
2023-04-26T08:36:32.962Z,84.2134
2023-04-26T08:37:33.660Z,83.8698
2023-04-26T08:38:34.426Z,83.5928
2023-04-26T08:39:35.160Z,83.5271
2023-04-26T08:40:35.885Z,83.1468
2023-04-26T08:41:36.595Z,83.1999
2023-04-26T08:42:38.002Z,83.7545
2023-04-26T08:43:38.976Z,84.2646
2023-04-26T08:44:39.674Z,84.0838
2023-04-26T08:45:40.495Z,83.4385
2023-04-26T08:46:41.226Z,83.3915
2023-04-26T08:47:42.022Z,83.6468
2023-04-26T08:48:42.727Z,83.5438
2023-04-26T08:49:43.443Z,83.5053
2023-04-26T08:50:44.109Z,83.7149
2023-04-26T08:51:44.855Z,83.7331
2023-04-26T08:52:45.632Z,83.3866
2023-04-26T08:53:46.298Z,82.9271
2023-04-26T08:54:47.036Z,82.8774
2023-04-26T08:55:47.724Z,82.8806
2023-04-26T08:56:48.415Z,83.2292
2023-04-26T08:57:49.105Z,83.3209
2023-04-26T08:58:49.790Z,82.8644
2023-04-26T08:59:50.524Z,83.3605
2023-04-26T09:00:51.383Z,83.2037
2023-04-26T09:01:52.119Z,83.0599
2023-04-26T09:02:53.197Z,83.3408
2023-04-26T09:03:54.585Z,82.8932
2023-04-26T09:04:55.973Z,82.7325
2023-04-26T09:05:56.930Z,82.3303
2023-04-26T09:06:57.652Z,81.8690
2023-04-26T09:07:58.344Z,81.7863
2023-04-26T09:08:59.036Z,81.4688
2023-04-26T09:09:59.840Z,80.8929
2023-04-26T09:11:00.531Z,80.9203
2023-04-26T09:12:01.230Z,80.6624
2023-04-26T09:13:01.957Z,80.9934
2023-04-26T09:14:02.662Z,81.5907
2023-04-26T09:15:03.372Z,81.1698
2023-04-26T09:16:05.267Z,80.5773
2023-04-26T09:17:06.323Z,79.8845
2023-04-26T09:18:07.043Z,79.7333
2023-04-26T09:19:07.769Z,79.2963
2023-04-26T09:20:08.608Z,79.4301
2023-04-26T09:21:09.305Z,79.3424
2023-04-26T09:22:10.026Z,79.2880
2023-04-26T09:23:10.736Z,79.1461
2023-04-26T09:24:11.404Z,79.5236
2023-04-26T09:25:12.103Z,79.9726
2023-04-26T09:26:12.791Z,79.2969
2023-04-26T09:27:13.509Z,79.3050
2023-04-26T09:28:14.182Z,79.0992
2023-04-26T09:29:14.970Z,79.3998
2023-04-26T09:30:15.665Z,79.6333
2023-04-26T09:31:16.399Z,78.9187
2023-04-26T09:32:17.079Z,78.5839
2023-04-26T09:33:17.897Z,77.9787
2023-04-26T09:34:18.568Z,77.9117
2023-04-26T09:35:19.278Z,77.3910
2023-04-26T09:36:19.946Z,77.1036
2023-04-26T09:37:20.627Z,76.1714
2023-04-26T09:38:21.364Z,76.3132
2023-04-26T09:39:22.031Z,77.1170
2023-04-26T09:40:22.788Z,77.5771
2023-04-26T09:41:23.518Z,78.1880
2023-04-26T09:42:24.192Z,78.4139
2023-04-26T09:43:24.826Z,78.3177
2023-04-26T09:44:25.469Z,77.5835
2023-04-26T09:45:26.119Z,76.8325
2023-04-26T09:46:26.843Z,76.8404
2023-04-26T09:47:27.474Z,77.1511
2023-04-26T09:48:28.113Z,76.7558
2023-04-26T09:49:28.766Z,77.1439
2023-04-26T09:50:29.459Z,76.7892
2023-04-26T09:51:30.145Z,76.8531
2023-04-26T09:52:30.792Z,77.0735
2023-04-26T09:53:31.434Z,77.3019
2023-04-26T09:54:32.046Z,76.7398
2023-04-26T09:55:35.468Z,76.3702
2023-04-26T09:56:33.819Z,76.3646
2023-04-26T09:57:34.472Z,76.1972
2023-04-26T09:58:35.093Z,76.1403
2023-04-26T09:59:35.725Z,76.6795
2023-04-26T10:00:36.386Z,76.2950
2023-04-26T10:01:37.088Z,76.1266
2023-04-26T10:02:37.808Z,77.0988
2023-04-26T10:03:38.798Z,77.4073
2023-04-26T10:04:39.788Z,76.8161
2023-04-26T10:05:40.455Z,76.8790
2023-04-26T10:06:41.147Z,76.8061
2023-04-26T10:07:41.875Z,75.8848
2023-04-26T10:08:42.570Z,74.7064
2023-04-26T10:09:43.208Z,74.6228
2023-04-26T10:10:43.929Z,74.4662
2023-04-26T10:11:44.576Z,74.4918
2023-04-26T10:12:45.264Z,74.7581
2023-04-26T10:13:45.991Z,74.4644
2023-04-26T10:14:46.694Z,74.2641
2023-04-26T10:15:47.406Z,74.2080
2023-04-26T10:16:48.112Z,74.3107
2023-04-26T10:17:50.239Z,74.8901
2023-04-26T10:18:50.185Z,73.2145
2023-04-26T10:19:50.939Z,73.3447
2023-04-26T10:20:51.609Z,72.9097
2023-04-26T10:21:52.289Z,72.5539
2023-04-26T10:22:52.963Z,72.1354
2023-04-26T10:23:53.700Z,71.7248
2023-04-26T10:24:54.391Z,71.3654
2023-04-26T10:25:55.082Z,71.0955
2023-04-26T10:26:55.810Z,70.8830
2023-04-26T10:27:56.525Z,70.2444
2023-04-26T10:29:02.098Z,69.7167
2023-04-26T10:29:58.330Z,70.0846
2023-04-26T10:30:58.996Z,71.5044
2023-04-26T10:31:59.653Z,73.0475
2023-04-26T10:33:00.331Z,71.3549
2023-04-26T10:34:00.948Z,69.8174
2023-04-26T10:35:01.621Z,68.9783
2023-04-26T10:36:02.260Z,68.2164
2023-04-26T10:37:02.995Z,67.8370
2023-04-26T10:38:03.638Z,67.0863
2023-04-26T10:39:04.261Z,67.0239
2023-04-26T10:40:04.863Z,65.8303
2023-04-26T10:41:05.545Z,67.3483
2023-04-26T10:42:06.171Z,67.1461
2023-04-26T10:43:06.806Z,65.8445
2023-04-26T10:44:07.421Z,66.0404
2023-04-26T10:45:08.054Z,65.9829
2023-04-26T10:46:08.695Z,65.5583
2023-04-26T10:47:09.284Z,65.1127
2023-04-26T10:48:09.964Z,66.8781
2023-04-26T10:49:10.589Z,67.3523
2023-04-26T10:50:11.215Z,67.3093
2023-04-26T10:51:11.958Z,66.5076
2023-04-26T10:52:12.554Z,65.6057
2023-04-26T10:53:13.198Z,65.6664
2023-04-26T10:54:13.836Z,65.3660
2023-04-26T10:55:14.469Z,65.0328
2023-04-26T10:56:15.083Z,65.3443
2023-04-26T10:57:15.716Z,63.7453
2023-04-26T10:58:16.323Z,63.8676
2023-04-26T10:59:36.125Z,63.1864
2023-04-26T11:00:18.001Z,62.8380
2023-04-26T11:01:18.751Z,62.0401
2023-04-26T11:02:19.408Z,60.1102
2023-04-26T11:03:20.104Z,61.4339
2023-04-26T11:04:20.897Z,61.0561
2023-04-26T11:05:23.557Z,59.3564
2023-04-26T11:06:22.670Z,59.1977
2023-04-26T11:07:23.291Z,58.4607
2023-04-26T11:08:23.934Z,57.0554
2023-04-26T11:09:24.552Z,56.2278
2023-04-26T11:10:25.219Z,55.2872
2023-04-26T11:11:25.905Z,57.0729
2023-04-26T11:12:26.586Z,60.0415
2023-04-26T11:13:27.211Z,60.9289
2023-04-26T11:14:27.872Z,60.1133
2023-04-26T11:15:28.506Z,58.7206
2023-04-26T11:16:29.302Z,58.5148
2023-04-26T11:17:30.002Z,58.9554
2023-04-26T11:18:30.629Z,57.9277
2023-04-26T11:19:31.256Z,56.5125
2023-04-26T11:20:31.830Z,56.4764
2023-04-26T11:21:32.444Z,55.6242
2023-04-26T11:22:33.023Z,55.0527
2023-04-26T11:23:33.849Z,54.3630
2023-04-26T11:24:34.448Z,54.7532
2023-04-26T11:25:35.041Z,55.3866
2023-04-26T11:26:35.652Z,55.0575
2023-04-26T11:27:36.163Z,54.5109
2023-04-26T11:28:36.737Z,54.4945
2023-04-26T11:29:37.331Z,55.1568
2023-04-26T11:30:38.506Z,54.6476
2023-04-26T11:31:39.460Z,53.9814
2023-04-26T11:32:40.120Z,54.9099
2023-04-26T11:33:40.699Z,55.5693
2023-04-26T11:34:41.297Z,55.9720
2023-04-26T11:35:41.869Z,54.2218
2023-04-26T11:36:42.473Z,53.0956
2023-04-26T11:37:43.051Z,52.0446
2023-04-26T11:38:43.694Z,51.0853
2023-04-26T11:39:44.318Z,50.4812
2023-04-26T11:40:44.867Z,51.0952
2023-04-26T11:41:45.436Z,51.2413
2023-04-26T11:42:46.029Z,52.4059
2023-04-26T11:43:46.634Z,52.6217
2023-04-26T11:44:47.879Z,53.1838
2023-04-26T11:45:48.608Z,54.9246
2023-04-26T11:46:49.291Z,55.3242
2023-04-26T11:47:49.899Z,54.3835
2023-04-26T11:48:50.425Z,53.4837
2023-04-26T11:49:51.070Z,53.5054
2023-04-26T11:50:51.614Z,53.2416
2023-04-26T11:51:52.218Z,53.1892
2023-04-26T11:52:52.773Z,52.5046
2023-04-26T11:53:53.318Z,52.4218
2023-04-26T11:54:53.869Z,52.3494
2023-04-26T11:55:54.459Z,51.4756
2023-04-26T11:56:55.050Z,52.0127
2023-04-26T11:57:55.865Z,52.5761
2023-04-26T11:58:56.834Z,52.4867
2023-04-26T11:59:57.639Z,52.2237
2023-04-26T12:00:58.213Z,52.9725
2023-04-26T12:01:58.936Z,52.7597
2023-04-26T12:02:59.715Z,52.5148
2023-04-26T12:04:00.792Z,52.1769
2023-04-26T12:05:01.822Z,52.3871
2023-04-26T12:06:02.545Z,51.6999
2023-04-26T12:07:03.113Z,51.0398
2023-04-26T12:08:03.681Z,51.8129
2023-04-26T12:09:04.258Z,55.3614
2023-04-26T12:10:04.880Z,56.2475
2023-04-26T12:11:05.497Z,54.7905
2023-04-26T12:12:06.092Z,53.3728
2023-04-26T12:13:06.695Z,51.9092
2023-04-26T12:14:07.377Z,51.8262